Time;durP1;ratioP1;P1;durP2;ratioP2;P2;SDS_P1;SDS_P2;PMS_P1;PMS_P2;Temp;Humidity;BMP_temperature;BMP_pressure;BME280_temperature;BME280_humidity;BME280_pressure;Samples;Min_cycle;Max_cycle;Signal;HPM_P1;HPM_P2
2022/09/21 00:02:23;;;;;;;11.85;1.70;;;21.90;99.90;;;;;;5032902;28;20246;-78
2022/09/21 00:04:53;;;;;;;11.75;1.92;;;21.90;99.90;;;;;;5030307;28;20198;-78
2022/09/21 00:07:24;;;;;;;12.52;2.20;;;22.00;99.90;;;;;;5046544;28;20201;-79
2022/09/21 00:09:57;;;;;;;10.13;2.08;;;22.10;99.90;;;;;;5046588;28;20201;-79
2022/09/21 00:12:28;;;;;;;9.10;1.60;;;22.10;99.90;;;;;;5033534;28;20608;-79
2022/09/21 00:14:59;;;;;;;13.93;2.00;;;22.10;99.90;;;;;;5046089;28;20201;-80
2022/09/21 00:17:30;;;;;;;8.93;1.90;;;22.10;99.90;;;;;;5029711;28;20189;-79
2022/09/21 00:20:03;;;;;;;10.55;1.83;;;22.10;99.90;;;;;;5036061;28;20200;-79
2022/09/21 00:22:34;;;;;;;6.78;1.60;;;22.10;99.90;;;;;;5042103;28;20205;-79
2022/09/21 00:25:09;;;;;;;11.80;2.20;;;22.00;99.90;;;;;;5048908;28;20196;-79
2022/09/21 00:27:40;;;;;;;8.60;1.95;;;22.00;99.90;;;;;;5043662;28;20242;-78
2022/09/21 00:30:11;;;;;;;4.85;1.48;;;22.00;99.90;;;;;;5034323;28;20209;-79
2022/09/21 00:32:44;;;;;;;8.85;1.58;;;22.00;99.90;;;;;;5037514;28;20192;-79
2022/09/21 00:35:15;;;;;;;6.57;1.70;;;22.00;99.90;;;;;;5051314;28;20201;-78
2022/09/21 00:37:45;;;;;;;8.48;1.73;;;22.10;99.90;;;;;;5042331;28;20903;-78
2022/09/21 00:40:18;;;;;;;10.90;1.83;;;22.10;99.90;;;;;;5035995;28;20220;-78
2022/09/21 00:42:49;;;;;;;8.93;1.67;;;22.20;99.90;;;;;;5050660;28;20228;-79
2022/09/21 00:45:21;;;;;;;11.82;1.92;;;22.30;99.90;;;;;;5033707;28;20229;-79
2022/09/21 00:47:54;;;;;;;8.85;1.60;;;22.40;99.90;;;;;;5038409;28;20239;-78
2022/09/21 00:50:27;;;;;;;8.23;2.60;;;22.40;99.90;;;;;;5039205;28;20193;-79
2022/09/21 00:52:59;;;;;;;7.18;1.27;;;22.40;99.90;;;;;;5050842;28;20231;-80
2022/09/21 00:55:36;;;;;;;9.52;2.00;;;22.40;99.90;;;;;;5047409;28;20194;-78
2022/09/21 00:58:11;;;;;;;8.80;1.63;;;22.40;99.90;;;;;;5053286;28;20238;-78
2022/09/21 01:00:42;;;;;;;5.72;1.35;;;22.30;99.90;;;;;;5046616;28;20613;-79
2022/09/21 01:03:14;;;;;;;8.07;1.80;;;22.10;99.90;;;;;;5040952;28;20667;-78
2022/09/21 01:05:45;;;;;;;6.97;1.60;;;22.10;99.90;;;;;;5049073;28;20200;-78
2022/09/21 01:08:17;;;;;;;8.18;1.90;;;22.00;99.90;;;;;;5049256;28;20282;-77
2022/09/21 01:11:08;;;;;;;11.27;2.03;;;22.10;99.90;;;;;;5045132;28;20196;-77
2022/09/21 01:13:49;;;;;;;8.55;1.60;;;22.00;99.90;;;;;;5048590;28;20243;-77
2022/09/21 01:16:25;;;;;;;9.15;2.03;;;21.90;99.90;;;;;;5046856;28;20334;-78
2022/09/21 01:19:05;;;;;;;11.23;2.10;;;22.00;99.90;;;;;;5039643;28;20197;-77
2022/09/21 01:21:39;;;;;;;8.68;1.77;;;22.10;99.90;;;;;;5040996;28;20220;-77
2022/09/21 01:24:41;;;;;;;6.78;1.73;;;22.10;99.90;;;;;;5052347;28;20634;-79
2022/09/21 01:27:49;;;;;;;5.40;1.70;;;22.00;99.90;;;;;;5051963;28;20196;-79
2022/09/21 01:30:24;;;;;;;6.97;1.58;;;22.00;99.90;;;;;;5004669;28;20209;-77
2022/09/21 01:33:01;;;;;;;8.82;1.50;;;21.90;99.90;;;;;;5032372;28;20346;-78
2022/09/21 01:35:38;;;;;;;10.10;1.98;;;22.00;99.90;;;;;;5032335;28;20659;-78
2022/09/21 01:38:11;;;;;;;8.95;2.13;;;22.00;99.90;;;;;;5038758;28;20232;-78
2022/09/21 01:40:45;;;;;;;10.82;1.98;;;22.10;99.90;;;;;;5031997;28;20221;-78
2022/09/21 01:43:24;;;;;;;9.70;1.70;;;22.20;99.90;;;;;;5031415;28;20224;-78
2022/09/21 01:46:00;;;;;;;9.02;1.80;;;22.10;99.90;;;;;;5039553;28;20231;-79
2022/09/21 01:48:34;;;;;;;7.25;1.88;;;22.10;99.90;;;;;;5046968;28;20217;-79
2022/09/21 01:51:08;;;;;;;9.57;1.70;;;22.20;99.90;;;;;;5035561;28;20197;-78
2022/09/21 01:53:43;;;;;;;8.80;1.67;;;22.20;99.90;;;;;;5052151;28;20228;-79
2022/09/21 01:56:19;;;;;;;6.35;1.60;;;22.20;99.90;;;;;;5048517;28;20203;-77
2022/09/21 01:58:56;;;;;;;10.18;2.00;;;22.10;99.90;;;;;;5046359;28;20196;-78
2022/09/21 02:01:33;;;;;;;8.40;1.90;;;22.10;99.90;;;;;;5039777;28;20220;-78
2022/09/21 02:04:07;;;;;;;8.18;1.92;;;22.00;99.90;;;;;;5038412;28;20225;-77
2022/09/21 02:06:40;;;;;;;8.88;2.00;;;21.90;99.90;;;;;;5050817;28;20289;-78
2022/09/21 02:09:13;;;;;;;7.32;1.52;;;21.90;99.90;;;;;;5045114;28;20263;-78
2022/09/21 02:11:43;;;;;;;9.48;1.85;;;21.90;99.90;;;;;;5032754;28;20570;-77
2022/09/21 02:14:17;;;;;;;7.20;1.38;;;21.70;99.90;;;;;;5039644;28;20196;-77
2022/09/21 02:16:55;;;;;;;10.00;1.58;;;21.70;99.90;;;;;;5037641;28;20584;-78
2022/09/21 02:19:37;;;;;;;7.35;1.98;;;21.70;99.90;;;;;;5037486;28;20255;-79
2022/09/21 02:22:13;;;;;;;5.47;1.38;;;21.70;99.90;;;;;;5031239;28;20294;-79
2022/09/21 02:24:46;;;;;;;5.28;1.45;;;21.70;99.90;;;;;;5031742;28;20291;-78
2022/09/21 02:27:26;;;;;;;8.50;1.58;;;21.70;99.90;;;;;;5045844;28;20201;-77
2022/09/21 02:30:06;;;;;;;8.45;1.58;;;21.90;99.90;;;;;;5034868;28;20201;-77
2022/09/21 02:32:49;;;;;;;5.90;1.65;;;22.10;99.90;;;;;;5048639;28;20204;-77
2022/09/21 02:35:35;;;;;;;9.10;1.52;;;22.20;99.90;;;;;;5049402;28;20283;-77
2022/09/21 02:38:12;;;;;;;11.45;1.88;;;22.20;99.90;;;;;;5033015;28;20201;-77
2022/09/21 02:40:47;;;;;;;9.13;2.35;;;22.20;99.90;;;;;;5047493;28;20200;-77
2022/09/21 02:43:24;;;;;;;7.25;1.75;;;22.20;99.90;;;;;;5030947;28;20205;-78
2022/09/21 02:46:01;;;;;;;7.65;1.55;;;22.20;99.90;;;;;;5036522;28;20197;-77
2022/09/21 02:48:38;;;;;;;8.90;1.70;;;22.20;99.90;;;;;;5049400;28;20232;-77
2022/09/21 02:51:14;;;;;;;10.30;2.20;;;22.20;99.90;;;;;;5042578;28;20201;-76
2022/09/21 02:53:46;;;;;;;12.40;1.98;;;22.20;99.90;;;;;;5041582;28;20266;-77
2022/09/21 02:56:17;;;;;;;11.35;2.10;;;22.30;99.90;;;;;;5050400;28;20192;-76
2022/09/21 02:58:55;;;;;;;10.43;1.90;;;22.10;99.90;;;;;;5030593;28;20198;-76
2022/09/21 03:01:27;;;;;;;9.80;1.80;;;22.10;99.90;;;;;;5038299;28;20315;-76
2022/09/21 03:04:00;;;;;;;7.65;1.73;;;22.20;99.90;;;;;;5034549;28;20308;-76
2022/09/21 03:06:32;;;;;;;14.35;1.95;;;22.20;99.90;;;;;;5036199;28;20655;-76
2022/09/21 03:09:03;;;;;;;8.30;1.80;;;22.10;99.90;;;;;;5033655;28;20562;-77
2022/09/21 03:11:34;;;;;;;9.18;2.10;;;22.20;99.90;;;;;;5040553;28;20204;-75
2022/09/21 03:14:07;;;;;;;9.00;2.20;;;22.20;99.90;;;;;;5047468;28;20212;-76
2022/09/21 03:16:38;;;;;;;8.63;2.03;;;22.10;99.90;;;;;;5044510;28;20687;-77
2022/09/21 03:19:11;;;;;;;12.50;2.17;;;22.10;99.90;;;;;;5035751;28;20201;-77
2022/09/21 03:21:42;;;;;;;11.30;2.35;;;22.00;99.90;;;;;;5041742;28;20220;-77
2022/09/21 03:24:44;;;;;;;9.30;2.08;;;22.00;99.90;;;;;;5044699;28;20239;-77
2022/09/21 03:27:03;;;;;;;7.43;1.83;;;21.90;99.90;;;;;;5037700;28;20197;-76
2022/09/21 03:29:34;;;;;;;9.07;1.77;;;21.90;99.90;;;;;;5036495;28;20202;-76
2022/09/21 03:32:05;;;;;;;9.20;2.05;;;21.70;99.90;;;;;;5030212;28;20198;-77
2022/09/21 03:34:38;;;;;;;6.28;1.73;;;21.60;99.90;;;;;;5030500;28;20679;-77
2022/09/21 03:37:10;;;;;;;10.95;1.98;;;21.50;99.90;;;;;;5040680;28;20196;-77
2022/09/21 03:39:40;;;;;;;8.85;2.10;;;21.50;99.90;;;;;;5045621;28;20203;-77
2022/09/21 03:42:12;;;;;;;10.32;2.35;;;21.60;99.90;;;;;;5032877;28;20587;-76
2022/09/21 03:44:43;;;;;;;10.38;1.83;;;21.50;99.90;;;;;;5038294;28;20201;-78
2022/09/21 03:47:14;;;;;;;9.55;2.20;;;21.40;99.90;;;;;;5042174;28;20208;-77
2022/09/21 03:49:49;;;;;;;11.73;2.30;;;21.40;99.90;;;;;;5054914;28;20197;-76
2022/09/21 03:52:20;;;;;;;11.82;2.53;;;21.40;99.90;;;;;;5046013;28;20230;-76
2022/09/21 03:54:50;;;;;;;8.25;2.25;;;21.30;99.90;;;;;;5033929;28;20197;-76
2022/09/21 03:57:21;;;;;;;11.63;1.98;;;21.30;99.90;;;;;;5036125;28;20197;-77
2022/09/21 03:59:57;;;;;;;9.02;1.95;;;21.20;99.90;;;;;;5033898;28;20200;-77
2022/09/21 04:02:28;;;;;;;16.67;3.33;;;21.10;99.90;;;;;;5036775;28;20217;-77
2022/09/21 04:05:13;;;;;;;;;;;;;;;;;;;;;
2022/09/21 04:07:48;;;;;;;10.07;2.03;;;21.10;99.90;;;;;;5036877;28;20200;-77
2022/09/21 04:10:28;;;;;;;13.43;2.40;;;21.10;99.90;;;;;;5049184;28;20212;-78
2022/09/21 04:13:02;;;;;;;12.18;2.35;;;21.10;99.90;;;;;;5034132;28;20275;-76
2022/09/21 04:15:33;;;;;;;13.35;2.28;;;21.10;99.90;;;;;;5034837;28;20542;-77
2022/09/21 04:18:04;;;;;;;11.10;2.10;;;21.00;99.90;;;;;;5050389;28;20287;-77
2022/09/21 04:20:37;;;;;;;11.65;2.20;;;21.00;99.90;;;;;;5042371;28;20216;-77
2022/09/21 04:23:08;;;;;;;10.60;2.03;;;21.00;99.90;;;;;;5037952;28;20228;-76
2022/09/21 04:25:40;;;;;;;13.40;2.30;;;21.00;99.90;;;;;;5036331;28;20196;-77
2022/09/21 04:28:11;;;;;;;11.73;2.22;;;21.00;99.90;;;;;;5041304;28;20200;-77
2022/09/21 04:30:42;;;;;;;10.43;2.28;;;21.00;99.90;;;;;;5046989;28;20189;-76
2022/09/21 04:33:13;;;;;;;11.65;2.35;;;21.00;99.90;;;;;;5040490;28;20223;-77
2022/09/21 04:35:45;;;;;;;13.00;2.15;;;20.90;99.90;;;;;;5033749;28;20224;-76
2022/09/21 04:38:16;;;;;;;12.00;2.58;;;20.90;99.90;;;;;;5033649;28;20197;-76
2022/09/21 04:40:55;;;;;;;10.48;2.22;;;20.90;99.90;;;;;;5035349;28;20266;-76
2022/09/21 04:43:26;;;;;;;9.75;2.35;;;21.00;99.90;;;;;;5047308;28;20224;-77
2022/09/21 04:45:56;;;;;;;15.07;2.90;;;21.00;99.90;;;;;;5038684;28;20663;-76
2022/09/21 04:48:27;;;;;;;11.90;2.25;;;21.00;99.90;;;;;;5033120;28;20200;-76
2022/09/21 04:51:00;;;;;;;10.23;2.88;;;21.00;99.90;;;;;;5035627;28;20194;-77
2022/09/21 04:53:31;;;;;;;10.18;2.30;;;20.90;99.90;;;;;;5030272;28;20282;-76
2022/09/21 04:56:01;;;;;;;12.95;2.47;;;20.90;99.90;;;;;;5036962;28;20204;-75
2022/09/21 04:58:34;;;;;;;13.70;2.75;;;20.90;99.90;;;;;;5052136;28;20189;-77
2022/09/21 05:01:06;;;;;;;13.77;2.88;;;20.90;99.90;;;;;;5037593;28;20189;-76
2022/09/21 05:03:37;;;;;;;15.05;2.58;;;20.90;99.90;;;;;;5039443;28;20220;-76
2022/09/21 05:06:12;;;;;;;11.52;2.78;;;20.90;99.90;;;;;;5047196;28;20387;-76
2022/09/21 05:11:35;;;;;;;10.65;2.42;;;20.80;99.90;;;;;;4986120;28;20274;-76
2022/09/21 05:14:08;;;;;;;11.95;2.35;;;20.80;99.90;;;;;;5050491;28;20193;-77
2022/09/21 05:16:38;;;;;;;15.80;2.80;;;20.80;99.90;;;;;;5051402;28;20301;-77
2022/09/21 05:19:16;;;;;;;12.93;2.55;;;20.70;99.90;;;;;;5055130;28;20201;-77
2022/09/21 05:21:49;;;;;;;17.23;3.10;;;20.80;99.90;;;;;;5043135;28;20197;-75
2022/09/21 05:24:19;;;;;;;11.88;2.65;;;20.80;99.90;;;;;;5041731;28;20718;-76
2022/09/21 05:26:51;;;;;;;11.90;2.65;;;20.70;99.90;;;;;;5044352;28;20205;-78
2022/09/21 05:29:24;;;;;;;13.27;2.85;;;20.60;99.90;;;;;;5055848;28;20239;-79
2022/09/21 05:31:58;;;;;;;15.15;3.00;;;20.60;99.90;;;;;;5056915;28;20587;-78
2022/09/21 05:34:45;;;;;;;19.40;3.35;;;20.70;99.90;;;;;;5056432;28;20192;-79
2022/09/21 05:37:37;;;;;;;12.95;2.88;;;20.60;99.90;;;;;;5039381;28;20221;-75
2022/09/21 05:40:11;;;;;;;11.70;2.65;;;20.60;99.90;;;;;;5035312;28;20209;-76
2022/09/21 05:42:46;;;;;;;11.20;2.70;;;20.50;99.90;;;;;;5040461;28;20219;-77
2022/09/21 05:45:27;;;;;;;14.98;3.20;;;20.50;99.90;;;;;;5056323;28;20788;-76
2022/09/21 05:48:09;;;;;;;14.02;2.60;;;20.50;99.90;;;;;;5037092;28;20216;-77
2022/09/21 05:50:58;;;;;;;11.50;3.05;;;20.50;99.90;;;;;;5044148;28;20281;-76
2022/09/21 05:53:47;;;;;;;15.95;3.33;;;20.40;99.90;;;;;;5046514;28;20717;-76
2022/09/21 05:56:33;;;;;;;16.65;2.97;;;20.40;99.90;;;;;;5035659;28;20201;-77
2022/09/21 05:59:12;;;;;;;14.07;2.88;;;20.40;99.90;;;;;;5032837;28;20204;-77
2022/09/21 06:02:00;;;;;;;19.05;2.78;;;20.40;99.90;;;;;;5042648;28;20258;-76
2022/09/21 06:04:31;;;;;;;12.35;2.70;;;20.40;99.90;;;;;;5053509;28;20609;-77
2022/09/21 06:07:08;;;;;;;13.63;2.88;;;20.30;99.90;;;;;;5051436;28;20289;-79
2022/09/21 06:09:42;;;;;;;17.33;3.20;;;20.30;99.90;;;;;;5045994;28;20193;-76
2022/09/21 06:12:13;;;;;;;20.17;2.70;;;20.30;99.90;;;;;;5045185;28;20205;-75
2022/09/21 06:14:43;;;;;;;13.25;3.00;;;20.30;99.90;;;;;;5044313;28;20212;-76
2022/09/21 06:17:14;;;;;;;15.63;2.85;;;20.30;99.90;;;;;;5046193;28;20200;-77
2022/09/21 06:19:45;;;;;;;12.82;3.15;;;20.30;99.90;;;;;;5062365;28;20211;-76
2022/09/21 06:22:16;;;;;;;12.77;2.80;;;20.30;99.90;;;;;;5054527;28;20290;-76
2022/09/21 06:24:51;;;;;;;13.27;2.47;;;20.30;99.90;;;;;;5048326;28;20201;-77
2022/09/21 06:27:25;;;;;;;15.50;3.20;;;20.30;99.90;;;;;;5036540;28;20188;-79
2022/09/21 06:29:56;;;;;;;15.48;3.20;;;20.30;99.90;;;;;;5036219;28;20203;-77
2022/09/21 06:32:26;;;;;;;10.05;2.30;;;20.20;99.90;;;;;;5038319;28;20205;-76
2022/09/21 06:35:18;;;;;;;13.73;3.10;;;20.30;99.90;;;;;;5045067;28;20198;-79
2022/09/21 06:37:49;;;;;;;17.08;2.88;;;20.20;99.90;;;;;;5043685;28;20204;-77
2022/09/21 06:40:22;;;;;;;14.45;2.50;;;20.20;99.90;;;;;;5048117;28;20203;-77
2022/09/21 06:42:56;;;;;;;12.38;2.50;;;20.20;99.90;;;;;;5033440;28;20217;-75
2022/09/21 06:45:27;;;;;;;14.48;3.03;;;20.20;99.90;;;;;;5044887;28;20579;-77
2022/09/21 06:47:58;;;;;;;10.77;2.83;;;20.20;99.90;;;;;;5046343;28;20193;-77
2022/09/21 06:50:28;;;;;;;12.90;2.95;;;20.20;99.90;;;;;;5034140;28;20238;-77
2022/09/21 06:53:02;;;;;;;18.10;3.10;;;20.20;99.90;;;;;;5050392;28;20232;-77
2022/09/21 06:55:35;;;;;;;17.15;3.25;;;20.10;99.90;;;;;;5039594;28;20208;-77
2022/09/21 06:58:06;;;;;;;12.10;2.92;;;20.10;99.90;;;;;;5035261;28;20201;-77
2022/09/21 07:00:37;;;;;;;14.98;2.95;;;20.10;99.90;;;;;;5049028;28;20300;-76
2022/09/21 07:03:08;;;;;;;13.98;2.75;;;20.10;99.90;;;;;;5057038;28;20216;-76
2022/09/21 07:05:38;;;;;;;13.95;3.13;;;20.10;99.90;;;;;;5030279;28;20197;-76
2022/09/21 07:08:09;;;;;;;15.18;2.58;;;20.10;99.90;;;;;;5048026;28;20570;-76
2022/09/21 07:10:42;;;;;;;14.13;2.70;;;20.10;99.90;;;;;;5050577;28;20204;-76
2022/09/21 07:13:13;;;;;;;14.52;2.90;;;20.10;99.90;;;;;;5048530;28;20204;-77
2022/09/21 07:15:43;;;;;;;14.02;3.03;;;20.00;99.90;;;;;;5047170;28;21154;-77
2022/09/21 07:18:15;;;;;;;17.23;3.10;;;20.00;99.90;;;;;;5040001;28;20549;-77
2022/09/21 07:20:46;;;;;;;14.02;3.08;;;20.00;99.90;;;;;;5030004;28;20193;-77
2022/09/21 07:23:18;;;;;;;14.13;2.95;;;20.00;99.90;;;;;;5030199;28;20257;-77
2022/09/21 07:25:52;;;;;;;17.30;2.97;;;20.00;99.90;;;;;;5032923;28;20197;-77
2022/09/21 07:28:22;;;;;;;13.25;3.13;;;20.00;99.90;;;;;;5048084;28;20197;-77
2022/09/21 07:30:53;;;;;;;15.23;3.40;;;20.00;99.90;;;;;;5040503;28;20193;-76
2022/09/21 07:33:24;;;;;;;15.80;3.13;;;19.90;99.90;;;;;;5049216;28;20283;-77
2022/09/21 07:35:55;;;;;;;13.90;2.92;;;20.00;99.90;;;;;;5033893;28;20199;-76
2022/09/21 07:38:26;;;;;;;19.10;3.42;;;19.90;99.90;;;;;;5042106;28;20730;-77
2022/09/21 07:40:59;;;;;;;17.25;3.10;;;19.90;99.90;;;;;;5041433;28;20280;-77
2022/09/21 07:43:29;;;;;;;14.05;3.00;;;19.90;99.90;;;;;;5030431;28;20603;-76
2022/09/21 07:46:01;;;;;;;19.38;2.97;;;19.90;99.90;;;;;;5044210;28;20200;-76
2022/09/21 07:48:32;;;;;;;14.02;3.08;;;19.90;99.90;;;;;;5036242;28;20399;-77
2022/09/21 07:51:06;;;;;;;17.20;2.88;;;19.90;99.90;;;;;;5046134;28;20205;-78
2022/09/21 07:53:37;;;;;;;10.75;3.08;;;19.90;99.90;;;;;;5040707;28;20260;-78
2022/09/21 07:56:11;;;;;;;15.55;3.40;;;19.80;99.90;;;;;;5048043;28;20197;-78
2022/09/21 08:01:29;;;;;;;13.32;3.10;;;19.80;99.90;;;;;;5039125;28;20212;-77
2022/09/21 08:04:01;;;;;;;15.23;3.53;;;19.90;99.90;;;;;;5033740;28;20232;-78
2022/09/21 08:06:35;;;;;;;13.98;3.17;;;19.90;99.90;;;;;;5036048;28;20197;-78
2022/09/21 08:09:06;;;;;;;17.55;3.28;;;19.80;99.90;;;;;;5030025;28;20205;-77
2022/09/21 08:11:43;;;;;;;14.80;3.20;;;19.80;99.90;;;;;;5032627;28;20211;-78
2022/09/21 08:14:18;;;;;;;11.73;2.75;;;19.80;99.90;;;;;;5045074;28;20193;-78
2022/09/21 08:16:49;;;;;;;16.00;3.38;;;19.80;99.90;;;;;;5041088;28;20195;-77
2022/09/21 08:19:20;;;;;;;15.57;3.85;;;19.80;99.90;;;;;;5047363;28;20592;-77
2022/09/21 08:21:51;;;;;;;22.35;4.20;;;19.80;99.90;;;;;;5037940;28;20201;-77
2022/09/21 08:24:22;;;;;;;14.60;3.50;;;19.80;99.90;;;;;;5028887;28;20224;-77
2022/09/21 08:26:56;;;;;;;14.88;3.33;;;19.80;99.90;;;;;;5043878;28;20280;-77
2022/09/21 08:29:29;;;;;;;17.13;3.38;;;19.80;99.90;;;;;;5051337;28;20216;-77
2022/09/21 08:31:59;;;;;;;15.73;3.17;;;19.80;99.90;;;;;;5040196;28;20300;-80
2022/09/21 08:34:30;;;;;;;14.25;3.05;;;19.80;99.90;;;;;;5028992;28;20197;-79
2022/09/21 08:37:03;;;;;;;15.30;3.25;;;19.80;99.90;;;;;;5035004;28;20565;-78
2022/09/21 08:39:34;;;;;;;14.50;3.30;;;19.80;99.90;;;;;;5047524;28;20225;-79
2022/09/21 08:42:26;;;;;;;11.55;2.80;;;19.80;99.90;;;;;;5040586;28;20189;-79
2022/09/21 08:45:04;;;;;;;14.18;3.05;;;19.70;99.90;;;;;;5040930;28;20221;-81
2022/09/21 08:47:42;;;;;;;13.45;3.10;;;19.70;99.90;;;;;;5033460;28;20608;-81
2022/09/21 08:50:30;;;;;;;12.13;3.03;;;19.70;99.90;;;;;;5039209;28;20207;-80
2022/09/21 08:53:06;;;;;;;13.60;3.35;;;19.70;99.90;;;;;;5032174;28;20344;-78
2022/09/21 08:55:37;;;;;;;11.30;2.70;;;19.80;99.90;;;;;;5034516;28;20205;-79
2022/09/21 08:58:22;;;;;;;11.05;2.95;;;19.70;99.90;;;;;;5046037;28;20198;-79
2022/09/21 09:01:06;;;;;;;16.23;3.88;;;19.70;99.90;;;;;;5047686;28;20291;-78
2022/09/21 09:04:01;;;;;;;13.15;2.67;;;19.70;99.90;;;;;;5052094;28;20266;-78
2022/09/21 09:06:39;;;;;;;10.13;2.50;;;19.70;99.90;;;;;;5046042;28;20274;-78
2022/09/21 09:09:36;;;;;;;13.70;2.80;;;19.70;99.90;;;;;;5051525;28;20203;-80
2022/09/21 09:12:25;;;;;;;12.57;3.00;;;19.70;99.90;;;;;;5036020;28;20202;-80
2022/09/21 09:15:35;;;;;;;14.13;3.10;;;19.70;99.90;;;;;;5038952;28;20241;-80
2022/09/21 09:18:12;;;;;;;18.13;3.55;;;19.70;99.90;;;;;;4994901;28;20201;-79
2022/09/21 09:20:46;;;;;;;18.73;3.50;;;19.70;99.90;;;;;;5038107;28;20280;-79
2022/09/21 09:23:25;;;;;;;13.18;3.05;;;19.70;99.90;;;;;;5035779;28;20220;-80
2022/09/21 09:26:00;;;;;;;12.63;3.17;;;19.70;99.90;;;;;;5035799;28;20235;-80
2022/09/21 09:28:35;;;;;;;16.75;3.45;;;19.70;99.90;;;;;;5043504;28;20212;-81
2022/09/21 09:31:15;;;;;;;16.15;3.65;;;19.70;99.90;;;;;;5050362;28;20651;-81
2022/09/21 09:33:55;;;;;;;14.52;3.00;;;19.70;99.90;;;;;;5033197;28;20350;-80
2022/09/21 09:36:31;;;;;;;14.05;3.50;;;19.60;99.90;;;;;;5047396;28;20200;-81
2022/09/21 09:39:06;;;;;;;16.98;3.50;;;19.70;99.90;;;;;;5040334;28;20197;-80
2022/09/21 09:42:00;;;;;;;15.05;3.63;;;19.70;99.90;;;;;;5037573;28;20200;-81
2022/09/21 09:44:54;;;;;;;15.32;3.35;;;19.70;99.90;;;;;;5032602;28;20695;-80
2022/09/21 09:47:39;;;;;;;14.45;3.28;;;19.60;99.90;;;;;;5033145;28;20201;-80
2022/09/21 09:50:14;;;;;;;16.48;4.13;;;19.60;99.90;;;;;;5033389;28;20227;-79
2022/09/21 09:52:47;;;;;;;16.00;3.28;;;19.60;99.90;;;;;;5033370;28;20752;-79
2022/09/21 09:55:23;;;;;;;18.92;4.32;;;19.70;99.90;;;;;;5049730;28;20235;-80
2022/09/21 09:57:57;;;;;;;19.58;3.40;;;19.60;99.90;;;;;;5037966;28;20670;-80
2022/09/21 10:00:28;;;;;;;14.25;3.67;;;19.60;99.90;;;;;;5042729;28;20626;-80
2022/09/21 10:03:01;;;;;;;17.60;3.67;;;19.50;99.90;;;;;;5044515;28;20204;-80
2022/09/21 10:05:37;;;;;;;20.15;3.15;;;19.60;99.90;;;;;;5048007;28;20319;-80
2022/09/21 10:08:07;;;;;;;13.18;3.50;;;19.50;99.90;;;;;;5042336;28;20220;-79
2022/09/21 10:10:41;;;;;;;16.45;3.75;;;19.50;99.90;;;;;;5036670;28;20202;-77
2022/09/21 10:13:23;;;;;;;12.93;3.33;;;19.50;99.90;;;;;;5043873;28;20570;-77
2022/09/21 10:15:57;;;;;;;14.02;3.00;;;19.50;99.90;;;;;;5047503;28;20598;-80
2022/09/21 10:18:39;;;;;;;16.85;3.40;;;19.50;99.90;;;;;;5040391;28;20659;-80
2022/09/21 10:21:16;;;;;;;15.52;3.30;;;19.50;99.90;;;;;;5046894;28;20671;-79
2022/09/21 10:23:51;;;;;;;17.75;3.33;;;19.50;99.90;;;;;;5032089;28;20228;-79
2022/09/21 10:26:23;;;;;;;15.07;3.40;;;19.50;99.90;;;;;;5032640;28;20200;-78
2022/09/21 10:29:03;;;;;;;15.32;3.10;;;19.50;99.90;;;;;;5031920;28;20201;-80
2022/09/21 10:31:35;;;;;;;12.15;3.08;;;19.50;99.90;;;;;;5047552;28;20196;-78
2022/09/21 10:34:16;;;;;;;13.57;3.13;;;19.50;99.90;;;;;;5031305;28;20580;-80
2022/09/21 10:36:53;;;;;;;13.95;3.10;;;19.50;99.90;;;;;;5040910;28;20227;-81
2022/09/21 10:39:28;;;;;;;11.60;2.80;;;19.50;99.90;;;;;;5051201;28;20201;-80
2022/09/21 10:42:03;;;;;;;10.13;2.92;;;19.50;99.90;;;;;;5040255;28;20256;-81
2022/09/21 10:44:40;;;;;;;13.85;3.30;;;19.50;99.90;;;;;;5051648;28;20223;-80
2022/09/21 10:47:27;;;;;;;11.75;2.80;;;19.50;99.90;;;;;;5041083;28;20732;-79
2022/09/21 10:50:10;;;;;;;10.95;2.90;;;19.50;99.90;;;;;;5040150;28;20208;-78
2022/09/21 10:52:43;;;;;;;9.02;2.53;;;19.50;99.90;;;;;;5052955;28;20228;-78
2022/09/21 10:55:20;;;;;;;10.80;2.92;;;19.40;99.90;;;;;;5054740;28;20239;-77
2022/09/21 10:57:53;;;;;;;18.02;3.00;;;19.40;99.90;;;;;;5055726;28;20631;-77
2022/09/21 11:00:43;;;;;;;14.82;2.55;;;19.40;99.90;;;;;;5035290;28;20264;-79
2022/09/21 11:03:42;;;;;;;13.27;3.05;;;19.40;99.90;;;;;;5034688;28;20208;-80
2022/09/21 11:06:21;;;;;;;12.60;2.38;;;19.40;99.90;;;;;;5037627;28;20199;-80
2022/09/21 11:08:59;;;;;;;13.65;3.03;;;19.40;99.90;;;;;;5053014;28;20617;-79
2022/09/21 11:11:42;;;;;;;10.40;2.50;;;19.40;99.90;;;;;;5053114;28;20250;-78
2022/09/21 11:14:27;;;;;;;12.60;2.50;;;19.40;99.90;;;;;;5042165;28;20228;-78
2022/09/21 11:17:02;;;;;;;9.57;2.63;;;19.40;99.90;;;;;;5038455;28;20213;-78
2022/09/21 11:19:40;;;;;;;12.43;3.03;;;19.40;99.90;;;;;;5033205;28;20686;-78
2022/09/21 11:22:20;;;;;;;10.75;2.85;;;19.40;99.90;;;;;;5046563;28;20196;-80
2022/09/21 11:25:16;;;;;;;9.70;2.72;;;19.50;99.90;;;;;;5053084;28;20483;-84
2022/09/21 11:27:52;;;;;;;13.32;2.95;;;19.40;99.90;;;;;;5054136;28;20203;-78
2022/09/21 11:30:23;;;;;;;10.05;2.50;;;19.40;99.90;;;;;;5034286;28;20192;-80
2022/09/21 11:33:07;;;;;;;11.48;2.50;;;19.40;99.90;;;;;;5043149;28;20225;-78
2022/09/21 11:35:46;;;;;;;9.95;2.55;;;19.40;99.90;;;;;;5037274;28;20228;-82
2022/09/21 11:38:28;;;;;;;13.00;2.80;;;19.40;99.90;;;;;;5033906;28;20197;-79
2022/09/21 11:41:08;;;;;;;12.32;2.85;;;19.40;99.90;;;;;;5045433;28;20197;-80
2022/09/21 11:43:52;;;;;;;8.02;2.55;;;19.40;99.90;;;;;;5034004;28;20571;-79
2022/09/21 11:46:31;;;;;;;12.52;2.70;;;19.40;99.90;;;;;;5036656;28;20200;-79
2022/09/21 11:49:19;;;;;;;10.73;2.47;;;19.40;99.90;;;;;;5035074;28;20197;-81
2022/09/21 11:52:09;;;;;;;9.73;2.40;;;19.40;99.90;;;;;;5047289;28;20573;-80
2022/09/21 11:55:07;;;;;;;13.65;2.85;;;19.40;99.90;;;;;;5034662;28;20778;-81
2022/09/21 11:57:47;;;;;;;9.45;2.42;;;19.30;99.90;;;;;;5043559;28;20212;-80
2022/09/21 12:00:20;;;;;;;15.38;2.70;;;19.30;99.90;;;;;;5040306;28;20322;-80
2022/09/21 12:03:38;;;;;;;11.55;2.28;;;19.30;99.90;;;;;;5040793;28;20209;-79
2022/09/21 12:06:31;;;;;;;12.38;2.72;;;19.30;99.90;;;;;;5040017;28;20198;-80
2022/09/21 12:09:21;;;;;;;8.82;2.40;;;19.30;99.90;;;;;;5053947;28;20201;-80
2022/09/21 12:12:06;;;;;;;12.20;2.83;;;19.30;99.90;;;;;;5040953;28;20197;-80
2022/09/21 12:14:48;;;;;;;8.57;2.88;;;19.30;99.90;;;;;;5034310;28;20232;-79
2022/09/21 12:17:40;;;;;;;14.02;2.85;;;19.20;99.90;;;;;;5041958;28;20243;-84
2022/09/21 12:20:18;;;;;;;10.68;2.28;;;19.20;99.90;;;;;;5056803;28;20271;-79
2022/09/21 12:22:51;;;;;;;13.25;2.70;;;19.20;99.90;;;;;;5043834;28;20254;-80
2022/09/21 12:25:25;;;;;;;10.40;2.42;;;19.20;99.90;;;;;;5046009;28;20454;-80
2022/09/21 12:28:05;;;;;;;9.13;2.70;;;19.20;99.90;;;;;;5053738;28;20682;-78
2022/09/21 12:30:41;;;;;;;6.07;1.98;;;19.20;99.90;;;;;;5043971;28;20197;-78
2022/09/21 12:33:19;;;;;;;8.82;2.47;;;19.20;99.90;;;;;;5033321;28;20221;-78
2022/09/21 12:35:54;;;;;;;8.43;2.72;;;19.20;99.90;;;;;;5038416;28;20724;-78
2022/09/21 12:38:30;;;;;;;9.30;2.60;;;19.20;99.90;;;;;;5040322;28;20196;-78
2022/09/21 12:41:07;;;;;;;9.77;2.67;;;19.20;99.90;;;;;;5047163;28;20198;-79
2022/09/21 12:43:44;;;;;;;11.60;2.63;;;19.20;99.90;;;;;;5034440;28;20201;-78
2022/09/21 12:46:19;;;;;;;11.85;3.00;;;19.20;99.90;;;;;;5040117;28;20204;-78
2022/09/21 12:48:49;;;;;;;7.32;2.15;;;19.20;99.90;;;;;;5042293;28;20204;-78
2022/09/21 12:51:26;;;;;;;11.52;2.33;;;19.20;99.90;;;;;;5043786;28;20200;-78
2022/09/21 12:54:00;;;;;;;10.32;2.38;;;19.20;99.90;;;;;;5053250;28;20224;-79
2022/09/21 12:56:37;;;;;;;9.20;2.30;;;19.20;99.90;;;;;;5046890;28;20204;-78
2022/09/21 12:59:27;;;;;;;7.60;2.58;;;19.20;99.90;;;;;;5046951;28;20291;-78
2022/09/21 13:02:11;;;;;;;8.18;2.40;;;19.20;99.90;;;;;;5043880;28;20699;-78
2022/09/21 13:04:55;;;;;;;11.10;2.50;;;19.20;99.90;;;;;;5051501;28;20235;-79
2022/09/21 13:07:54;;;;;;;7.90;2.60;;;19.20;99.90;;;;;;5047303;28;20333;-79
2022/09/21 13:10:41;;;;;;;7.03;2.40;;;19.10;99.90;;;;;;5039014;28;20205;-79
2022/09/21 13:13:28;;;;;;;7.25;2.40;;;19.10;99.90;;;;;;5038664;28;20276;-79
2022/09/21 13:16:03;;;;;;;7.50;2.40;;;19.10;99.90;;;;;;5047103;28;20200;-78
2022/09/21 13:21:26;;;;;;;8.95;2.90;;;19.10;99.90;;;;;;5044300;28;20659;-79
2022/09/21 13:24:00;;;;;;;11.02;3.10;;;19.00;99.90;;;;;;5056380;28;20219;-79
2022/09/21 13:26:37;;;;;;;11.50;3.05;;;19.00;99.90;;;;;;5057403;28;20197;-78
2022/09/21 13:29:23;;;;;;;11.00;2.88;;;19.00;99.90;;;;;;5050014;28;20192;-78
2022/09/21 13:32:02;;;;;;;7.65;2.67;;;19.00;99.90;;;;;;5035920;28;20221;-79
2022/09/21 13:34:36;;;;;;;8.40;2.50;;;19.00;99.90;;;;;;5040474;28;20213;-78
2022/09/21 13:37:31;;;;;;;12.13;2.42;;;18.90;99.90;;;;;;5041821;28;20196;-79